createdAt,value
2018-11-05T00:01:34.686Z,20.30
2018-11-05T00:04:03.498Z,24.07
2018-11-05T00:06:32.741Z,20.72
2018-11-05T00:09:01.526Z,22.07
2018-11-05T00:11:30.730Z,22.10
2018-11-05T00:13:59.762Z,21.00
2018-11-05T00:16:28.542Z,20.23
2018-11-05T00:18:57.346Z,20.77
2018-11-05T00:21:26.465Z,20.68
2018-11-05T00:24:01.862Z,20.80
2018-11-05T00:26:30.626Z,18.45
2018-11-05T00:28:59.414Z,20.32
2018-11-05T00:31:28.130Z,17.98
2018-11-05T00:33:56.917Z,20.32
2018-11-05T00:36:26.001Z,18.65
2018-11-05T00:38:54.745Z,19.05
2018-11-05T00:41:23.885Z,21.30
2018-11-05T00:43:52.645Z,19.98
2018-11-05T00:46:21.825Z,18.32
2018-11-05T00:48:50.509Z,22.75
2018-11-05T00:51:19.270Z,20.15
2018-11-05T00:53:48.321Z,22.70
2018-11-05T00:56:17.053Z,20.27
2018-11-05T00:58:45.837Z,20.68
2018-11-05T01:01:14.641Z,20.40
2018-11-05T01:03:43.861Z,20.27
2018-11-05T01:06:13.137Z,20.57
2018-11-05T01:08:42.201Z,20.43
2018-11-05T01:11:11.005Z,19.65
2018-11-05T01:13:40.397Z,19.62
2018-11-05T01:16:09.545Z,21.40
2018-11-05T01:18:38.333Z,18.25
2018-11-05T01:21:07.458Z,18.92
2018-11-05T01:23:36.530Z,23.73
2018-11-05T01:26:05.393Z,21.20
2018-11-05T01:28:34.565Z,19.90
2018-11-05T01:31:03.817Z,22.37
2018-11-05T01:33:32.633Z,22.05
2018-11-05T01:36:01.393Z,21.52
2018-11-05T01:38:30.205Z,22.22
2018-11-05T01:40:58.945Z,22.40
2018-11-05T01:43:27.705Z,22.00
2018-11-05T01:45:56.471Z,23.55
2018-11-05T01:48:25.230Z,23.30
2018-11-05T01:50:54.008Z,22.65
2018-11-05T01:53:23.241Z,22.93
2018-11-05T01:55:52.030Z,23.30
2018-11-05T01:58:20.680Z,18.60
2018-11-05T02:00:49.265Z,25.02
2018-11-05T02:03:17.896Z,21.40
2018-11-05T02:05:46.520Z,25.80
2018-11-05T02:08:15.768Z,21.63
2018-11-05T02:10:44.433Z,24.60
2018-11-05T02:13:13.119Z,19.60
2018-11-05T02:16:12.596Z,19.77
2018-11-05T02:18:41.248Z,21.05
2018-11-05T02:21:09.884Z,23.10
2018-11-05T02:23:38.492Z,20.72
2018-11-05T02:26:07.104Z,22.50
2018-11-05T02:28:35.660Z,21.85
2018-11-05T02:31:04.838Z,21.57
2018-11-05T02:33:34.124Z,19.85
2018-11-05T02:36:02.673Z,24.23
2018-11-05T02:38:31.284Z,20.48
2018-11-05T02:41:00.036Z,21.60
2018-11-05T02:43:28.696Z,24.35
2018-11-05T02:45:57.292Z,22.50
2018-11-05T02:48:26.584Z,23.18
2018-11-05T02:50:55.444Z,21.30
2018-11-05T02:53:24.235Z,21.87
2018-11-05T02:55:53.015Z,22.95
2018-11-05T02:58:21.804Z,23.90
2018-11-05T03:00:50.692Z,22.65
2018-11-05T03:03:19.295Z,25.68
2018-11-05T03:05:48.120Z,22.00
2018-11-05T03:08:16.612Z,20.82
2018-11-05T03:10:45.207Z,22.55
2018-11-05T03:13:13.668Z,22.52
2018-11-05T03:15:42.264Z,23.65
2018-11-05T03:18:11.332Z,20.68
2018-11-05T03:20:39.840Z,20.72
2018-11-05T03:23:08.338Z,21.55
2018-11-05T03:25:36.915Z,23.62
2018-11-05T03:28:05.971Z,21.35
2018-11-05T03:30:34.792Z,20.52
2018-11-05T03:33:03.292Z,24.55
2018-11-05T03:35:31.829Z,21.37
2018-11-05T03:38:00.333Z,23.42
2018-11-05T03:40:28.879Z,24.85
2018-11-05T03:42:59.212Z,24.40
2018-11-05T03:45:28.449Z,24.18
2018-11-05T03:47:57.077Z,21.52
2018-11-05T03:50:25.584Z,24.87
2018-11-05T03:52:54.104Z,22.98
2018-11-05T03:55:22.885Z,25.62
2018-11-05T03:57:51.376Z,24.72
2018-11-05T04:00:19.915Z,21.60
2018-11-05T04:02:48.372Z,26.17
2018-11-05T04:05:16.852Z,22.97
2018-11-05T04:07:45.370Z,25.35
2018-11-05T04:10:14.578Z,24.05
2018-11-05T04:12:43.047Z,28.98
2018-11-05T04:15:11.791Z,25.15
2018-11-05T04:17:40.387Z,24.18
2018-11-05T04:20:10.759Z,22.25
2018-11-05T04:22:39.443Z,25.17
2018-11-05T04:25:08.719Z,25.48
2018-11-05T04:27:37.563Z,22.35
2018-11-05T04:30:08.452Z,23.35
2018-11-05T04:32:36.915Z,24.15
2018-11-05T04:35:05.721Z,24.37
2018-11-05T04:37:34.519Z,25.62
2018-11-05T04:40:03.299Z,26.52
2018-11-05T04:42:32.470Z,23.27
2018-11-05T04:45:01.104Z,25.62
2018-11-05T04:47:29.771Z,27.30
2018-11-05T04:49:58.288Z,26.25
2018-11-05T04:52:27.339Z,24.40
2018-11-05T04:54:56.391Z,25.62
2018-11-05T04:57:25.787Z,26.40
2018-11-05T04:59:54.276Z,25.82
2018-11-05T05:02:22.932Z,25.95
2018-11-05T05:04:51.787Z,26.07
2018-11-05T05:07:20.779Z,23.92
2018-11-05T05:09:49.648Z,26.93
2018-11-05T05:12:18.287Z,23.95
2018-11-05T05:14:46.875Z,22.42
2018-11-05T05:17:15.467Z,30.37
2018-11-05T05:19:43.983Z,23.92
2018-11-05T05:22:12.673Z,28.57
2018-11-05T05:24:41.563Z,24.10
2018-11-05T05:27:10.531Z,27.95
2018-11-05T05:29:39.011Z,28.65
2018-11-05T05:32:07.575Z,26.62
2018-11-05T05:34:36.183Z,24.60
2018-11-05T05:37:05.439Z,28.25
2018-11-05T05:39:34.167Z,22.73
2018-11-05T05:42:02.875Z,23.10
2018-11-05T05:44:31.778Z,25.12
2018-11-05T05:47:00.311Z,20.12
2018-11-05T05:49:28.835Z,24.05
2018-11-05T05:51:57.627Z,28.85
2018-11-05T05:54:26.407Z,29.48
2018-11-05T05:56:55.023Z,27.20
2018-11-05T05:59:23.640Z,27.45
2018-11-05T06:01:52.235Z,27.55
2018-11-05T06:05:23.586Z,27.05
2018-11-05T06:07:52.309Z,26.87
2018-11-05T06:10:21.234Z,27.10
2018-11-05T06:12:50.430Z,27.30
2018-11-05T06:15:19.015Z,27.60
2018-11-05T06:17:48.586Z,25.57
2018-11-05T06:20:18.375Z,26.80
2018-11-05T06:22:47.860Z,27.60
2018-11-05T06:25:16.851Z,26.52
2018-11-05T06:27:51.970Z,30.40
2018-11-05T06:30:21.486Z,25.17
2018-11-05T06:32:51.023Z,25.75
2018-11-05T06:35:20.217Z,29.25
2018-11-05T06:37:49.451Z,30.02
2018-11-05T06:40:19.226Z,30.23
2018-11-05T06:42:47.894Z,25.62
2018-11-05T06:45:18.533Z,29.10
2018-11-05T06:47:47.743Z,25.20
2018-11-05T06:50:18.279Z,27.45
2018-11-05T06:52:47.132Z,24.52
2018-11-05T06:55:16.059Z,31.57
2018-11-05T06:57:44.800Z,32.00
2018-11-05T07:00:17.037Z,33.40
2018-11-05T07:02:45.753Z,31.30
2018-11-05T07:05:14.641Z,30.53
2018-11-05T07:07:43.533Z,29.37
2018-11-05T07:10:13.066Z,35.43
2018-11-05T07:12:42.574Z,40.70
2018-11-05T07:15:12.925Z,43.57
2018-11-05T07:17:41.977Z,44.83
2018-11-05T07:20:12.954Z,43.60
2018-11-05T07:22:41.541Z,44.58
2018-11-05T07:25:11.436Z,42.35
2018-11-05T07:27:40.095Z,40.63
2018-11-05T07:30:13.398Z,31.48
2018-11-05T07:32:42.354Z,34.05
2018-11-05T07:35:12.445Z,44.45
2018-11-05T07:37:41.194Z,38.40
2018-11-05T07:40:11.318Z,33.27
2018-11-05T07:42:40.626Z,33.48
2018-11-05T07:45:12.978Z,30.32
2018-11-05T07:47:42.025Z,27.32
2018-11-05T07:50:12.025Z,31.00
2018-11-05T07:52:40.771Z,28.60
2018-11-05T07:55:11.262Z,30.82
2018-11-05T07:57:40.898Z,32.25
2018-11-05T08:00:17.190Z,34.27
2018-11-05T08:02:46.606Z,25.95
2018-11-05T08:05:17.065Z,31.80
2018-11-05T08:07:45.973Z,27.85
2018-11-05T08:10:14.693Z,27.58
2018-11-05T08:12:43.512Z,27.65
2018-11-05T08:15:17.228Z,31.27
2018-11-05T08:17:47.469Z,29.48
2018-11-05T08:20:16.465Z,30.90
2018-11-05T08:22:45.287Z,29.90
2018-11-05T08:25:14.713Z,26.50
2018-11-05T08:27:43.505Z,30.90
2018-11-05T08:30:15.816Z,25.40
2018-11-05T08:32:44.642Z,31.48
2018-11-05T08:35:13.848Z,30.32
2018-11-05T08:37:43.416Z,23.27
2018-11-05T08:40:14.806Z,26.05
2018-11-05T08:42:44.236Z,29.00
2018-11-05T08:45:13.956Z,30.93
2018-11-05T08:47:42.810Z,30.23
2018-11-05T08:50:13.425Z,27.42
2018-11-05T08:52:42.080Z,30.02
2018-11-05T08:55:13.319Z,29.18
2018-11-05T08:57:42.622Z,29.63
2018-11-05T09:00:20.420Z,30.97
2018-11-05T09:02:49.627Z,31.77
2018-11-05T09:05:18.759Z,26.80
2018-11-05T09:07:48.055Z,29.67
2018-11-05T09:10:16.914Z,28.07
2018-11-05T09:12:45.536Z,33.48
2018-11-05T09:15:15.556Z,29.17
2018-11-05T09:17:45.184Z,25.62
2018-11-05T09:20:15.186Z,25.40
2018-11-05T09:22:43.980Z,26.07
2018-11-05T09:25:13.372Z,26.75
2018-11-05T09:27:42.122Z,28.73
2018-11-05T09:30:17.001Z,25.92
2018-11-05T09:32:46.406Z,22.50
2018-11-05T09:35:15.269Z,27.58
2018-11-05T09:37:44.050Z,23.95
2018-11-05T09:40:15.418Z,26.42
2018-11-05T09:42:44.707Z,27.02
2018-11-05T09:45:16.846Z,30.27
2018-11-05T09:47:46.344Z,27.70
2018-11-05T09:50:15.430Z,28.13
2018-11-05T09:52:44.219Z,29.15
2018-11-05T09:55:13.720Z,30.02
2018-11-05T09:57:42.895Z,26.37
2018-11-05T10:00:12.984Z,24.25
2018-11-05T10:02:47.126Z,25.95
2018-11-05T10:05:16.209Z,23.18
2018-11-05T10:07:45.224Z,25.05
2018-11-05T10:11:16.778Z,24.60
2018-11-05T10:13:45.472Z,28.70
2018-11-05T10:16:14.208Z,26.50
2018-11-05T10:18:43.471Z,27.82
2018-11-05T10:21:12.831Z,27.75
2018-11-05T10:23:41.911Z,27.20
2018-11-05T10:26:10.638Z,23.47
2018-11-05T10:28:39.443Z,27.95
2018-11-05T10:31:08.411Z,25.68
2018-11-05T10:33:37.634Z,24.27
2018-11-05T10:36:06.199Z,22.62
2018-11-05T10:38:34.926Z,23.65
2018-11-05T10:41:03.675Z,25.48
2018-11-05T10:43:32.423Z,22.87
2018-11-05T10:46:01.269Z,23.47
2018-11-05T10:48:29.938Z,27.67
2018-11-05T10:50:58.992Z,23.83
2018-11-05T10:53:27.693Z,25.77
2018-11-05T10:55:56.450Z,24.47
2018-11-05T10:58:25.131Z,26.87
2018-11-05T11:00:59.323Z,28.05
2018-11-05T11:03:33.943Z,27.37
2018-11-05T11:06:03.631Z,26.25
2018-11-05T11:08:32.438Z,24.87
2018-11-05T11:11:01.143Z,24.32
2018-11-05T11:13:29.879Z,24.72
2018-11-05T11:15:58.594Z,28.27
2018-11-05T11:18:27.359Z,28.25
2018-11-05T11:20:56.082Z,26.93
2018-11-05T11:23:24.791Z,30.05
2018-11-05T11:25:53.527Z,30.10
2018-11-05T11:28:22.427Z,29.75
2018-11-05T11:30:51.647Z,28.17
2018-11-05T11:33:20.453Z,26.07
2018-11-05T11:35:49.434Z,24.85
2018-11-05T11:38:18.111Z,34.65
2018-11-05T11:40:46.782Z,29.20
2018-11-05T11:43:16.058Z,29.40
2018-11-05T11:45:44.787Z,32.35
2018-11-05T11:48:13.515Z,29.15
2018-11-05T11:50:42.626Z,29.37
2018-11-05T11:53:11.559Z,30.50
2018-11-05T11:55:40.219Z,35.23
2018-11-05T11:58:08.956Z,32.67
2018-11-05T12:00:37.780Z,26.65
2018-11-05T12:03:06.617Z,25.72
2018-11-05T12:05:35.218Z,30.12
2018-11-05T12:08:06.066Z,30.65
2018-11-05T12:10:35.214Z,27.62
2018-11-05T12:13:03.815Z,30.72
2018-11-05T12:15:32.490Z,29.98
2018-11-05T12:18:01.994Z,26.17
2018-11-05T12:20:31.035Z,27.73
2018-11-05T12:22:59.937Z,34.88
2018-11-05T12:25:28.611Z,24.67
2018-11-05T12:27:57.459Z,29.67
2018-11-05T12:30:26.042Z,24.18
2018-11-05T12:32:55.180Z,28.40
2018-11-05T12:35:23.978Z,25.40
2018-11-05T12:37:53.423Z,25.77
2018-11-05T12:40:22.897Z,22.95
2018-11-05T12:42:51.986Z,26.05
2018-11-05T12:45:20.706Z,30.27
2018-11-05T12:47:49.576Z,25.65
2018-11-05T12:50:21.134Z,27.27
2018-11-05T12:52:51.072Z,29.15
2018-11-05T12:55:19.691Z,28.10
2018-11-05T12:57:48.634Z,26.68
2018-11-05T13:00:20.506Z,25.08
2018-11-05T13:02:54.551Z,28.07
2018-11-05T13:05:23.970Z,26.68
2018-11-05T13:07:52.618Z,27.80
2018-11-05T13:10:21.466Z,25.60
2018-11-05T13:12:50.301Z,26.73
2018-11-05T13:15:19.053Z,26.60
2018-11-05T13:17:47.562Z,26.42
2018-11-05T13:20:18.709Z,25.23
2018-11-05T13:22:47.925Z,24.67
2018-11-05T13:25:16.430Z,26.93
2018-11-05T13:27:46.274Z,27.37
2018-11-05T13:30:15.460Z,28.40
2018-11-05T13:32:44.597Z,25.52
2018-11-05T13:35:15.310Z,26.23
2018-11-05T13:37:44.612Z,23.73
2018-11-05T13:40:15.854Z,27.62
2018-11-05T13:42:45.055Z,28.50
2018-11-05T13:45:14.631Z,29.35
2018-11-05T13:47:44.015Z,23.92
2018-11-05T13:50:12.674Z,30.35
2018-11-05T13:52:41.508Z,30.02
2018-11-05T13:55:12.458Z,27.42
2018-11-05T13:57:42.454Z,23.38
2018-11-05T14:00:13.065Z,31.60
2018-11-05T14:02:41.741Z,28.27
2018-11-05T14:05:10.943Z,31.36
2018-11-05T14:07:39.717Z,29.85
2018-11-05T14:10:12.449Z,32.93
2018-11-05T14:12:42.753Z,33.55
2018-11-05T14:15:11.337Z,32.15
2018-11-05T14:17:40.744Z,30.20
2018-11-05T14:20:10.325Z,33.35
2018-11-05T14:22:39.985Z,34.95
2018-11-05T14:25:10.501Z,34.43
2018-11-05T14:27:39.250Z,35.10
2018-11-05T14:30:09.014Z,34.92
2018-11-05T14:32:38.082Z,36.38
2018-11-05T14:35:06.734Z,33.83
2018-11-05T14:37:35.509Z,38.53
2018-11-05T14:40:04.892Z,35.50
2018-11-05T14:42:33.677Z,40.23
2018-11-05T14:45:02.406Z,41.70
2018-11-05T14:47:30.958Z,40.00
2018-11-05T14:49:59.533Z,41.88
2018-11-05T14:52:28.053Z,42.62
2018-11-05T14:54:56.620Z,45.15
2018-11-05T14:57:25.251Z,52.88
2018-11-05T14:59:54.085Z,49.93
2018-11-05T15:02:27.797Z,46.85
2018-11-05T15:05:05.963Z,50.40
2018-11-05T15:07:34.494Z,51.98
2018-11-05T15:10:03.001Z,50.78
2018-11-05T15:12:31.635Z,54.35
2018-11-05T15:15:00.149Z,48.35
2018-11-05T15:17:29.555Z,48.80
2018-11-05T15:19:58.687Z,46.88
2018-11-05T15:22:27.056Z,50.30
2018-11-05T15:24:56.200Z,51.60
2018-11-05T15:27:25.062Z,47.78
2018-11-05T15:29:54.085Z,46.40
2018-11-05T15:32:22.613Z,41.93
2018-11-05T15:34:51.137Z,41.90
2018-11-05T15:37:19.657Z,44.80
2018-11-05T15:39:48.241Z,57.08
2018-11-05T15:42:16.737Z,52.43
2018-11-05T15:44:45.249Z,47.73
2018-11-05T15:47:14.004Z,50.20
2018-11-05T15:49:42.521Z,52.67
2018-11-05T15:52:11.577Z,50.92
2018-11-05T15:54:40.069Z,49.77
2018-11-05T15:57:09.069Z,46.33
2018-11-05T15:59:38.065Z,52.93
2018-11-05T16:02:11.497Z,49.27
2018-11-05T16:04:41.210Z,52.58
2018-11-05T16:07:09.741Z,49.45
2018-11-05T16:09:39.393Z,48.85
2018-11-05T16:12:08.217Z,53.10
2018-11-05T16:14:37.521Z,47.27
2018-11-05T16:17:06.041Z,50.93
2018-11-05T16:19:34.612Z,50.23
2018-11-05T16:22:03.129Z,49.00
2018-11-05T16:24:31.965Z,54.55
2018-11-05T16:27:00.404Z,52.40
2018-11-05T16:29:29.609Z,55.00
2018-11-05T16:31:58.156Z,54.50
2018-11-05T16:34:26.689Z,58.25
2018-11-05T16:36:55.254Z,58.92
2018-11-05T16:39:23.830Z,60.00
2018-11-05T16:41:52.607Z,63.17
2018-11-05T16:44:21.021Z,68.72
2018-11-05T16:46:49.625Z,65.55
2018-11-05T16:49:18.345Z,69.53
2018-11-05T16:51:46.948Z,73.28
2018-11-05T16:54:15.600Z,75.55
2018-11-05T16:56:44.583Z,68.80
2018-11-05T16:59:13.119Z,80.37
2018-11-05T17:01:42.330Z,70.97
2018-11-05T17:04:10.743Z,73.52
2018-11-05T17:06:39.234Z,82.20
2018-11-05T17:09:09.146Z,78.22
2018-11-05T17:11:41.439Z,81.92
2018-11-05T17:14:10.623Z,83.67
2018-11-05T17:16:39.116Z,75.83
2018-11-05T17:19:07.700Z,82.25
2018-11-05T17:21:36.333Z,95.55
2018-11-05T17:24:05.505Z,91.67
2018-11-05T17:26:34.058Z,79.90
2018-11-05T17:29:02.603Z,85.92
2018-11-05T17:31:31.151Z,84.77
2018-11-05T17:33:59.895Z,75.45
2018-11-05T17:36:28.411Z,77.65
2018-11-05T17:41:40.955Z,81.65
2018-11-05T17:44:14.011Z,87.75
2018-11-05T17:46:42.558Z,83.27
2018-11-05T17:49:12.685Z,79.97
2018-11-05T17:51:41.389Z,89.80
2018-11-05T17:54:10.140Z,79.53
2018-11-05T17:56:38.631Z,77.75
2018-11-05T17:59:07.125Z,82.37
2018-11-05T18:01:35.657Z,85.50
2018-11-05T18:04:05.244Z,86.67
2018-11-05T18:06:33.782Z,82.05
2018-11-05T18:09:02.368Z,71.75
2018-11-05T18:11:30.870Z,85.38
2018-11-05T18:13:59.687Z,77.22
2018-11-05T18:16:28.170Z,77.90
2018-11-05T18:18:56.775Z,79.27
2018-11-05T18:21:25.355Z,76.20
2018-11-05T18:23:53.862Z,72.53
2018-11-05T18:26:22.355Z,77.37
2018-11-05T18:28:51.095Z,70.08
2018-11-05T18:31:19.744Z,74.97
2018-11-05T18:33:48.515Z,72.00
2018-11-05T18:36:16.995Z,73.33
2018-11-05T18:38:45.782Z,78.60
2018-11-05T18:41:14.286Z,72.30
2018-11-05T18:43:43.027Z,73.42
2018-11-05T18:46:11.806Z,73.47
2018-11-05T18:48:40.286Z,73.30
2018-11-05T18:51:09.037Z,66.53
2018-11-05T18:53:37.626Z,68.10
2018-11-05T18:56:06.593Z,72.62
2018-11-05T18:58:35.106Z,68.42
2018-11-05T19:01:04.562Z,68.70
2018-11-05T19:03:33.150Z,72.85
2018-11-05T19:06:01.613Z,74.60
2018-11-05T19:08:30.085Z,71.15
2018-11-05T19:10:58.601Z,68.37
2018-11-05T19:13:27.222Z,68.37
2018-11-05T19:15:55.738Z,74.12
2018-11-05T19:18:24.533Z,72.95
2018-11-05T19:20:53.700Z,74.42
2018-11-05T19:23:23.909Z,70.30
2018-11-05T19:28:44.386Z,68.92
2018-11-05T19:31:13.133Z,77.47
2018-11-05T19:33:42.446Z,72.45
2018-11-05T19:36:11.405Z,74.50
2018-11-05T19:38:40.339Z,68.95
2018-11-05T19:41:08.906Z,67.45
2018-11-05T19:46:57.565Z,73.55
2018-11-05T19:49:26.183Z,68.90
2018-11-05T19:51:54.814Z,72.78
2018-11-05T19:54:23.546Z,67.03
2018-11-05T19:56:52.042Z,69.97
2018-11-05T19:59:20.858Z,62.53
2018-11-05T20:01:49.334Z,73.02
2018-11-05T20:04:18.048Z,65.05
2018-11-05T20:06:46.666Z,76.00
2018-11-05T20:09:15.174Z,77.85
2018-11-05T20:11:43.730Z,74.00
2018-11-05T20:14:12.643Z,64.80
2018-11-05T20:16:41.339Z,80.35
2018-11-05T20:19:10.452Z,70.50
2018-11-05T20:22:33.861Z,72.30
2018-11-05T20:25:06.593Z,74.85
2018-11-05T20:27:35.488Z,72.97
2018-11-05T20:30:04.645Z,76.72
2018-11-05T20:32:33.998Z,74.55
2018-11-05T20:35:01.958Z,70.78
2018-11-05T20:37:30.568Z,74.32
2018-11-05T20:39:59.412Z,66.95
2018-11-05T20:42:27.833Z,74.50
2018-11-05T20:44:56.332Z,73.25
2018-11-05T20:47:24.871Z,71.25
2018-11-05T20:49:53.692Z,73.22
2018-11-05T20:52:22.183Z,72.83
2018-11-05T20:54:50.693Z,73.97
2018-11-05T20:57:19.305Z,74.90
2018-11-05T20:59:47.972Z,84.13
2018-11-05T21:02:16.924Z,73.92
2018-11-05T21:04:51.796Z,79.32
2018-11-05T21:07:20.940Z,79.40
2018-11-05T21:09:49.620Z,76.00
2018-11-05T21:12:18.196Z,86.02
2018-11-05T21:14:46.768Z,74.12
2018-11-05T21:17:15.352Z,75.83
2018-11-05T21:19:43.892Z,82.15
2018-11-05T21:22:13.586Z,72.47
2018-11-05T21:24:42.128Z,80.32
2018-11-05T21:27:10.672Z,76.85
2018-11-05T21:29:39.356Z,73.70
2018-11-05T21:32:07.891Z,83.90
2018-11-05T21:34:36.868Z,75.25
2018-11-05T21:37:05.940Z,79.95
2018-11-05T21:39:34.476Z,82.02
2018-11-05T21:42:03.271Z,85.38
2018-11-05T21:44:31.919Z,76.65
2018-11-05T21:47:00.609Z,82.55
2018-11-05T21:49:29.600Z,80.60
2018-11-05T21:51:58.147Z,83.70
2018-11-05T21:54:27.082Z,82.85
2018-11-05T21:56:56.111Z,84.60
2018-11-05T22:02:10.475Z,78.57
2018-11-05T22:04:39.166Z,80.85
2018-11-05T22:07:07.718Z,80.60
2018-11-05T22:09:36.290Z,80.38
2018-11-05T22:12:05.179Z,83.12
2018-11-05T22:14:33.687Z,88.92
2018-11-05T22:17:02.659Z,91.67
2018-11-05T22:20:34.051Z,86.63
2018-11-05T22:23:02.571Z,89.92
2018-11-05T22:25:33.379Z,98.07
2018-11-05T22:28:01.960Z,90.72
2018-11-05T22:30:30.547Z,93.92
2018-11-05T22:32:59.396Z,90.87
2018-11-05T22:35:28.367Z,87.70
2018-11-05T22:37:56.914Z,90.70
2018-11-05T22:40:25.852Z,89.00
2018-11-05T22:42:54.695Z,99.87
2018-11-05T22:45:23.714Z,103.83
2018-11-05T22:47:52.291Z,95.22
2018-11-05T22:50:21.888Z,90.07
2018-11-05T22:52:50.714Z,97.78
2018-11-05T22:55:19.227Z,98.90
2018-11-05T22:57:47.950Z,102.65
2018-11-05T23:00:22.691Z,102.15
2018-11-05T23:02:56.694Z,102.72
2018-11-05T23:05:26.510Z,102.90
2018-11-05T23:07:56.146Z,107.87
2018-11-05T23:10:56.061Z,125.60
2018-11-05T23:13:24.570Z,118.22
2018-11-05T23:15:53.161Z,106.45
2018-11-05T23:18:21.678Z,113.53
2018-11-05T23:20:52.558Z,118.17
2018-11-05T23:23:21.094Z,112.17
2018-11-05T23:25:49.882Z,113.22
2018-11-05T23:28:18.614Z,117.13
2018-11-05T23:30:47.194Z,108.97
2018-11-05T23:33:16.084Z,116.42
2018-11-05T23:35:44.595Z,119.45
2018-11-05T23:38:13.654Z,114.22
2018-11-05T23:40:42.545Z,121.57
2018-11-05T23:43:11.502Z,123.60
2018-11-05T23:45:40.294Z,116.65
2018-11-05T23:48:08.894Z,121.72
2018-11-05T23:50:37.410Z,126.47
2018-11-05T23:53:06.518Z,125.12
2018-11-05T23:55:35.014Z,119.80
2018-11-05T23:58:03.873Z,132.03
